Boa Ventura, Brazil
Current Conditions -  °F | °C
As of 3:00 PM on Thursday 27 Nov 2014 (Local Time) from SBJU Reporting Station
Few Clouds Few Clouds  
Wind Chill: 97°   Ceiling: Unl
Heat Index: 98°   Visibility: 6mi
Dew Point: 63°   Wind: 8mph
Humidity: 32%   Direction: 100°E
Pressure: 29.88"   Gusts: NA
Location:  7.41°S, 38.22°W
Report Text: SBJU 271800Z 10007KT 9999 FEW022 36/17 Q1012
Loading
Personal Weather Stations






























Interactive Weather Map New forecast layout! Learn more

10-Day Weather Forecast

Advertisements
Track Severe Weather on mobile